Flight Track Log - Related Links

Times and Time Zones

All times are in EDT time to prevent confusion due to time zone crossing. See the SWA193 flight status page for this flight to view local times or setup timezone preferences in your user account.

Time Position Orientation Groundspeed Altitude Reporting Facility
EDT Latitude Longitude Course Direction KTS MPH feet Rate Location/Type
Mon 07:43:27 AM 26.0769 -80.1344 82° East 176 203 800  Level Miami Center
Mon 07:44:46 AM 26.0872 -80.0561 82° East 225 259 3,300 2,087 Climbing Miami Center
Mon 07:45:22 AM 26.0944 -80.0122 80° East 225 259 4,800 2,328 Climbing Miami Center
Mon 07:45:53 AM 26.1075 -79.9825 64° Northeast 251 289 5,900 2,700 Climbing Miami Center
Mon 07:46:22 AM 26.1272 -79.9439 60° Northeast 267 307 7,500 3,344 Climbing Miami Center
Mon 07:46:54 AM 26.1447 -79.9047 64° Northeast 280 322 9,300 3,100 Climbing Miami Center
Mon 07:47:22 AM 26.1664 -79.8639 59° Northeast 283 326 10,600 2,523 Climbing Miami Center
Mon 07:48:22 AM 26.2100 -79.7722 62° Northeast 308 354 13,000 2,550 Climbing Miami Center
Mon 07:49:22 AM 26.2642 -79.6808 57° Northeast 333 383 15,700 2,550 Climbing Miami Center
Mon 07:50:22 AM 26.3489 -79.6133 36° Northeast 354 407 18,100 2,350 Climbing Miami Center
Mon 07:51:22 AM 26.4317 -79.5481 35° Northeast 387 445 20,400 2,450 Climbing Miami Center
Mon 07:52:22 AM 26.5333 -79.4692 35° Northeast 404 465 23,000 2,150 Climbing Miami Center
Mon 07:53:22 AM 26.6222 -79.4036 33° Northeast 412 474 24,700 1,750 Climbing Miami Center
Mon 07:54:22 AM 26.7217 -79.3244 35° Northeast 423 487 26,500 1,950 Climbing Miami Center
Mon 07:55:22 AM 26.8358 -79.2383 34° Northeast 435 501 28,600 1,700 Climbing Miami Center
Mon 07:56:22 AM 26.9458 -79.1636 31° Northeast 448 516 29,900 1,450 Climbing Miami Center
Mon 07:57:22 AM 27.0494 -79.0747 37° Northeast 454 522 31,500 1,600 Climbing Miami Center
Mon 07:58:22 AM 27.1650 -79.0256 21° North 454 522 33,100 1,550 Climbing Miami Center
Mon 07:59:22 AM 27.2886 -78.9975 11° North 441 507 34,600 1,400 Climbing Miami Center
Mon 08:00:22 AM 27.4061 -78.9761 North 454 522 35,900 1,200 Climbing Miami Center
Mon 08:01:22 AM 27.5400 -78.9483 10° North 449 517 37,000 550 Climbing Miami Center
Mon 08:02:22 AM 27.6658 -78.9225 10° North 449 517 37,000  Level Miami Center
Mon 08:03:22 AM 27.7872 -78.8989 10° North 454 522 37,000  Level Miami Center
Mon 08:04:22 AM 27.8981 -78.8772 10° North 445 512 37,000 50 Level Miami Center
Mon 08:05:22 AM 28.0236 -78.8536 North 445 512 37,100 550 Climbing Miami Center
Mon 08:06:22 AM 28.1431 -78.8297 10° North 445 512 38,100 900 Climbing Miami Center
Mon 08:07:22 AM 28.2686 -78.8036 10° North 450 518 38,900 450 Climbing Miami Center
Mon 08:08:22 AM 28.3900 -78.7797 10° North 450 518 39,000 50 Climbing Miami Center
Mon 08:09:22 AM 28.5178 -78.7536 10° North 445 512 39,000  Level Miami Center
Mon 08:10:22 AM 28.6433 -78.7322 North 451 519 39,000  Level Miami Center
Mon 08:11:22 AM 28.7647 -78.7058 11° North 445 512 39,000  Level Miami Center
Mon 08:12:22 AM 28.8839 -78.6817 10° North 445 512 39,000  Level Miami Center
Mon 08:13:22 AM 29.0053 -78.6553 11° North 445 512 39,000  Level Miami Center
Mon 08:14:22 AM 29.1267 -78.6311 10° North 445 512 39,000  Level Miami Center
Mon 08:15:22 AM 29.2458 -78.6092 North 440 506 39,000  Level Miami Center
Mon 08:16:22 AM 29.3650 -78.5850 10° North 440 506 39,000  Level Miami Center
Mon 08:18:07 AM 29.5722 -78.5397 11° North 491 565 39,000  Level Jacksonville Center
Mon 08:19:07 AM 29.6900 -78.5011 16° North 454 522 39,000  Level Jacksonville Center
Mon 08:20:07 AM 29.8033 -78.4625 16° North 436 502 39,000  Level Jacksonville Center
Mon 08:21:07 AM 29.9211 -78.4236 16° North 428 493 39,000  Level Jacksonville Center
Mon 08:22:07 AM 30.0431 -78.3917 13° North 433 498 39,000  Level Jacksonville Center
Mon 08:23:07 AM 30.1564 -78.3503 18° North 426 490 39,000  Level Jacksonville Center
Mon 08:24:07 AM 30.2717 -78.3086 17° North 431 496 39,000  Level Jacksonville Center
Mon 08:25:07 AM 30.3936 -78.2717 15° North 436 502 39,000  Level Jacksonville Center
Mon 08:26:07 AM 30.5111 -78.2297 17° North 431 496 39,000  Level Jacksonville Center
Mon 08:27:07 AM 30.6244 -78.1906 17° North 431 496 39,000  Level Jacksonville Center
Mon 08:28:07 AM 30.7419 -78.1533 15° North 431 496 39,000  Level Jacksonville Center
Mon 08:29:07 AM 30.8575 -78.1136 16° North 431 496 39,000  Level Jacksonville Center
Mon 08:30:07 AM 30.9750 -78.0761 15° North 431 496 39,000  Level Jacksonville Center
Mon 08:31:07 AM 31.0861 -78.0389 16° North 425 489 39,000  Level Jacksonville Center
Mon 08:32:07 AM 31.1994 -77.9942 19° North 425 489 39,000  Level Jacksonville Center
Mon 08:33:07 AM 31.3144 -77.9469 19° North 425 489 39,000  Level Jacksonville Center
Mon 08:34:07 AM 31.4281 -77.9189 12° North 425 489 39,000  Level Jacksonville Center
Mon 08:35:07 AM 31.5389 -77.8739 19° North 418 481 39,000  Level Jacksonville Center
Mon 08:36:07 AM 31.6522 -77.8336 17° North 418 481 39,000  Level Jacksonville Center
Mon 08:37:07 AM 31.7656 -77.7983 15° North 418 481 39,000  Level Jacksonville Center
Mon 08:38:07 AM 31.8767 -77.7578 17° North 413 475 39,000  Level Jacksonville Center
Mon 08:39:07 AM 31.9903 -77.7269 13° North 413 475 39,000  Level Jacksonville Center
Mon 08:40:07 AM 32.1033 -77.6839 18° North 413 475 39,000  Level Jacksonville Center
Mon 08:41:07 AM 32.2144 -77.6481 15° North 413 475 39,000  Level Jacksonville Center
Mon 08:42:07 AM 32.3275 -77.6072 17° North 413 475 39,000  Level Jacksonville Center
Mon 08:43:07 AM 32.4406 -77.5661 17° North 413 475 39,000  Level Jacksonville Center
Mon 08:44:07 AM 32.5539 -77.5275 16° North 413 475 39,000  Level Jacksonville Center
Mon 08:45:58 AM 32.7597 -77.4556 16° North 419 482 39,000  Level Washington Center
Mon 08:46:56 AM 32.8750 -77.4161 16° North 424 488 39,000  Level Washington Center
Mon 08:47:56 AM 32.9883 -77.3739 17° North 424 488 39,000  Level Washington Center
Mon 08:48:57 AM 33.1014 -77.3367 15° North 419 482 39,000  Level Washington Center
Mon 08:49:58 AM 33.2147 -77.2944 17° North 424 488 39,000  Level Washington Center
Mon 08:50:56 AM 33.3300 -77.2544 16° North 419 482 39,000  Level Washington Center
Mon 08:51:57 AM 33.4411 -77.2169 16° North 419 482 39,000  Level Washington Center
Mon 08:52:58 AM 33.5522 -77.1742 18° North 419 482 39,000  Level Washington Center
Mon 08:53:56 AM 33.6694 -77.1339 16° North 425 489 39,000  Level Washington Center
Mon 08:54:56 AM 33.7806 -77.0936 17° North 420 483 39,000  Level Washington Center
Mon 08:55:57 AM 33.8917 -77.0531 17° North 420 483 39,000  Level Washington Center
Mon 08:56:57 AM 34.0089 -77.0125 16° North 420 483 39,000  Level Washington Center
Mon 08:57:58 AM 34.1222 -76.9692 18° North 420 483 39,000  Level Washington Center
Mon 08:58:55 AM 34.2353 -76.9286 17° North 420 483 39,000  Level Washington Center
Mon 08:59:56 AM 34.3506 -76.8875 16° North 420 483 39,000  Level Washington Center
Mon 09:00:56 AM 34.4636 -76.8464 17° North 420 483 39,000  Level Washington Center
Mon 09:01:57 AM 34.5767 -76.8053 17° North 420 483 39,000  Level Washington Center
Mon 09:02:55 AM 34.6897 -76.7617 18° North 420 483 39,000  Level Washington Center
Mon 09:03:56 AM 34.8028 -76.7228 16° North 420 483 39,000  Level Washington Center
Mon 09:04:56 AM 34.9158 -76.6811 17° North 420 483 39,000  Level Washington Center
Mon 09:05:58 AM 35.0289 -76.6397 17° North 420 483 39,000  Level Washington Center
Mon 09:06:58 AM 35.1419 -76.5981 17° North 420 483 39,000  Level Washington Center
Mon 09:07:56 AM 35.2592 -76.5536 17° North 425 489 39,000  Level Washington Center
Mon 09:08:57 AM 35.3806 -76.5092 17° North 417 480 39,000  Level Washington Center
Mon 09:09:58 AM 35.4831 -76.4669 19° North 417 480 39,000  Level Washington Center
Mon 09:10:56 AM 35.5961 -76.4247 17° North 422 486 39,000  Level Washington Center
Mon 09:11:56 AM 35.7092 -76.3775 19° North 422 486 39,000  Level Washington Center
Mon 09:12:57 AM 35.8219 -76.3375 16° North 422 486 39,000  Level Washington Center
Mon 09:13:57 AM 35.9392 -76.2925 17° North 422 486 39,000  Level Washington Center
Mon 09:14:57 AM 36.0542 -76.2497 17° North 422 486 39,000  Level Washington Center
Mon 09:15:58 AM 36.1692 -76.2044 18° North 422 486 39,000  Level Washington Center
Mon 09:16:56 AM 36.2797 -76.1639 16° North 422 486 39,000  Level Washington Center
Mon 09:17:56 AM 36.3989 -76.1211 16° North 422 486 39,000  Level Washington Center
Mon 09:18:56 AM 36.5097 -76.0753 18° North 422 486 39,000  Level Washington Center
Mon 09:19:57 AM 36.6225 -76.0319 17° North 422 486 39,000  Level Washington Center
Mon 09:20:58 AM 36.7500 -75.9808 18° North 422 486 39,000  Level Washington Center
Mon 09:21:56 AM 36.8650 -75.9372 17° North 422 486 39,000  Level Washington Center
Mon 09:22:57 AM 36.9903 -75.8883 17° North 439 505 39,000  Level Washington Center
Mon 09:23:58 AM 37.1028 -75.8469 16° North 439 505 39,000  Level Washington Center
Mon 09:24:56 AM 37.2197 -75.8006 18° North 434 499 39,000  Level Washington Center
Mon 09:25:56 AM 37.3347 -75.7564 17° North 434 499 39,000  Level Washington Center
Mon 09:26:57 AM 37.4514 -75.7094 18° North 434 499 39,000  Level Washington Center
Mon 09:27:58 AM 37.5661 -75.6653 17° North 434 499 39,000  Level Washington Center
Mon 09:28:56 AM 37.6831 -75.6181 18° North 434 499 39,000  Level Washington Center
Mon 09:29:56 AM 37.7978 -75.5733 17° North 434 499 39,000  Level Washington Center
Mon 09:30:56 AM 37.9125 -75.5286 17° North 434 499 39,000  Level Washington Center
Mon 09:31:57 AM 38.0272 -75.4836 17° North 434 499 39,000  Level Washington Center
Mon 09:32:57 AM 38.1375 -75.4228 23° Northeast 429 494 39,000  Level Washington Center
Mon 09:33:58 AM 38.2458 -75.3539 27° Northeast 429 494 39,000  Level Washington Center
Mon 09:34:58 AM 38.3519 -75.2739 31° Northeast 429 494 39,000  Level Washington Center
Mon 09:35:56 AM 38.4644 -75.2047 26° Northeast 429 494 39,000 -300 Level Washington Center
Mon 09:36:58 AM 38.5497 -75.1483 27° Northeast 429 494 38,400 -984 Descending Washington Center
Mon 09:37:58 AM 38.6850 -75.0703 24° Northeast 429 494 37,000 -712 Descending Washington Center
Mon 09:38:56 AM 38.7825 -74.9792 36° Northeast 429 494 37,000 -153 Level Washington Center
Mon 09:39:56 AM 38.8592 -74.8878 43° Northeast 420 483 36,700 -1,377 Descending Washington Center
Mon 09:40:58 AM 38.9542 -74.7856 40° Northeast 420 483 34,200 -2,231 Descending Washington Center
Mon 09:41:57 AM 39.0389 -74.6803 44° Northeast 420 483 32,200 -2,067 Descending Washington Center
Mon 09:42:57 AM 39.1361 -74.5800 39° Northeast 439 505 30,100 -2,035 Descending Washington Center
Mon 09:43:52 AM 39.2278 -74.4775 41° Northeast 429 494 28,300 -2,035 Descending New York Center
Mon 09:44:52 AM 39.3075 -74.3903 40° Northeast 421 484 26,200 -2,083 Descending New York Center
Mon 09:45:53 AM 39.3939 -74.2953 40° Northeast 416 479 24,100 -2,521 Descending New York Center
Mon 09:46:51 AM 39.4847 -74.1842 43° Northeast 405 466 21,200 -1,576 Descending New York Center
Mon 09:47:51 AM 39.5581 -74.0961 43° Northeast 400 460 21,000 -99 Descending New York Center
Mon 09:48:52 AM 39.6339 -73.9975 45° Northeast 395 455 21,000 -246 Level New York Center
Mon 09:49:53 AM 39.7181 -73.8881 45° Northeast 390 449 20,500 -756 Descending New York Center
Mon 09:50:51 AM 39.7939 -73.7858 46° Northeast 390 449 19,500 -1,032 Descending New York Center
Mon 09:52:30 AM 39.9206 -73.6383 42° Northeast 396 456 17,800 -981 Descending Boston Center
Mon 09:53:30 AM 40.0128 -73.5725 29° Northeast 382 440 16,900 -1,450 Descending Boston Center
Mon 09:54:30 AM 40.0989 -73.5033 32° Northeast 375 432 14,900 -2,350 Descending Boston Center
Mon 09:55:30 AM 40.1664 -73.4067 48° Northeast 364 419 12,200 -2,150 Descending Boston Center
Mon 09:56:30 AM 40.2403 -73.3153 43° Northeast 359 413 10,600 -1,192 Descending Boston Center
Mon 09:58:06 AM 40.3667 -73.2167 31° Northeast 294 338 9,100 -774 Descending New York TRACON
Mon 09:59:05 AM 40.4333 -73.1667 30° Northeast 289 333 8,600 -1,105 Descending New York TRACON
Mon 10:00:00 AM 40.5000 -73.1167 30° Northeast 297 342 7,000 -1,513 Descending New York TRACON
Mon 10:01:00 AM 40.5667 -73.0667 30° Northeast 291 335 5,700 -1,350 Descending New York TRACON
Mon 10:02:00 AM 40.6333 -73.0167 30° Northeast 285 328 4,300 -1,300 Descending New York TRACON
Mon 10:03:00 AM 40.7000 -72.9667 30° Northeast 275 316 3,100 -1,150 Descending New York TRACON
Mon 10:04:00 AM 40.7667 -72.9167 30° Northeast 269 310 2,000 -550 Descending New York TRACON
Mon 10:05:00 AM 40.8333 -72.8833 21° North 230 265 2,000 50 Level New York TRACON
Mon 10:06:00 AM 40.8833 -72.8833 360° North 207 238 2,100  Climbing New York TRACON
Mon 10:07:00 AM 40.9000 -72.9333 294° West 169 194 2,000 -105 Descending New York TRACON
Mon 10:07:54 AM 40.8833 -72.9833 246° West 168 193 1,900 -316 Descending New York TRACON
Mon 10:08:54 AM 40.8500 -73.0333 229° Southwest 160 184 1,400 -500 Descending New York TRACON

Login

Don't have an account? Register now (free) for customized features, flight alerts, and more!